createdAt,value
2022-12-10T00:01:50.446Z,91.93
2022-12-10T00:04:17.870Z,91.31
2022-12-10T00:06:45.577Z,91.07
2022-12-10T00:09:18.733Z,91.57
2022-12-10T00:11:45.879Z,91.70
2022-12-10T00:14:14.982Z,91.43
2022-12-10T00:16:42.577Z,91.78
2022-12-10T00:19:10.255Z,90.42
2022-12-10T00:21:38.829Z,91.68
2022-12-10T00:24:06.788Z,91.50
2022-12-10T00:26:38.167Z,91.77
2022-12-10T00:29:07.554Z,91.38
2022-12-10T00:31:37.528Z,91.57
2022-12-10T00:34:08.164Z,91.34
2022-12-10T00:36:45.242Z,91.40
2022-12-10T00:39:17.265Z,91.85
2022-12-10T00:41:45.435Z,90.63
2022-12-10T00:44:12.607Z,90.74
2022-12-10T00:46:40.312Z,91.42
2022-12-10T00:49:09.544Z,91.43
2022-12-10T00:51:36.760Z,91.12
2022-12-10T00:54:04.326Z,90.46
2022-12-10T00:56:39.213Z,90.67
2022-12-10T00:59:06.351Z,91.45
2022-12-10T01:01:38.014Z,91.39
2022-12-10T01:04:10.980Z,91.78
2022-12-10T01:06:50.560Z,91.69
2022-12-10T01:09:21.116Z,91.20
2022-12-10T01:11:50.908Z,91.82
2022-12-10T01:14:26.056Z,91.53
2022-12-10T01:17:00.965Z,91.58
2022-12-10T01:19:28.363Z,91.29
2022-12-10T01:21:56.860Z,91.28
2022-12-10T01:24:27.411Z,91.88
2022-12-10T01:26:58.070Z,90.94
2022-12-10T01:29:26.151Z,92.04
2022-12-10T01:31:56.549Z,91.21
2022-12-10T01:34:25.041Z,91.97
2022-12-10T01:36:55.859Z,90.97
2022-12-10T01:39:24.362Z,91.74
2022-12-10T01:42:00.139Z,91.11
2022-12-10T01:44:27.083Z,91.48
2022-12-10T01:46:57.945Z,91.19
2022-12-10T01:49:43.657Z,90.98
2022-12-10T01:52:13.779Z,92.03
2022-12-10T01:54:45.760Z,92.07
2022-12-10T01:57:17.228Z,91.21
2022-12-10T01:59:50.189Z,91.47
2022-12-10T02:02:42.109Z,91.11
2022-12-10T02:05:21.295Z,91.52
2022-12-10T02:08:24.766Z,91.77
2022-12-10T02:11:12.303Z,91.24
2022-12-10T02:13:53.421Z,91.58
2022-12-10T02:16:31.595Z,90.56
2022-12-10T02:19:12.194Z,91.81
2022-12-10T02:21:43.104Z,90.92
2022-12-10T02:24:18.050Z,91.59
2022-12-10T02:27:17.984Z,91.54
2022-12-10T02:29:50.230Z,91.44
2022-12-10T02:32:31.284Z,92.16
2022-12-10T02:35:08.178Z,91.96
2022-12-10T02:38:07.160Z,92.12
2022-12-10T02:40:38.329Z,92.10
2022-12-10T02:43:13.892Z,92.00
2022-12-10T02:45:44.713Z,92.37
2022-12-10T02:48:14.994Z,91.75
2022-12-10T02:50:44.105Z,91.59
2022-12-10T02:53:11.665Z,91.57
2022-12-10T02:56:21.867Z,92.03
2022-12-10T02:59:28.016Z,91.36
2022-12-10T03:02:36.827Z,91.62
2022-12-10T03:05:21.862Z,92.03
2022-12-10T03:08:21.268Z,92.70
2022-12-10T03:11:08.562Z,91.46
2022-12-10T03:13:47.687Z,92.08
2022-12-10T03:16:17.360Z,92.46
2022-12-10T03:18:47.542Z,91.59
2022-12-10T03:21:17.432Z,92.23
2022-12-10T03:23:48.080Z,92.32
2022-12-10T03:26:17.036Z,92.14
2022-12-10T03:28:53.379Z,91.97
2022-12-10T03:31:22.379Z,91.85
2022-12-10T03:33:50.191Z,91.81
2022-12-10T03:36:19.827Z,92.24
2022-12-10T03:38:47.273Z,91.96
2022-12-10T03:41:14.594Z,92.33
2022-12-10T03:43:55.919Z,91.70
2022-12-10T03:46:25.069Z,91.75
2022-12-10T03:48:52.624Z,91.97
2022-12-10T03:51:21.236Z,91.98
2022-12-10T03:53:51.228Z,91.76
2022-12-10T03:56:19.957Z,91.72
2022-12-10T03:58:47.687Z,91.67
2022-12-10T04:01:16.130Z,92.06
2022-12-10T04:03:44.646Z,92.25
2022-12-10T04:06:19.608Z,91.92
2022-12-10T04:08:47.688Z,91.67
2022-12-10T04:11:16.401Z,91.88
2022-12-10T04:14:02.464Z,92.26
2022-12-10T04:16:31.675Z,91.93
2022-12-10T04:19:08.899Z,91.62
2022-12-10T04:21:57.485Z,91.58
2022-12-10T04:24:47.053Z,91.37
2022-12-10T04:27:35.174Z,92.78
2022-12-10T04:30:02.714Z,91.61
2022-12-10T04:32:31.304Z,92.37
2022-12-10T04:34:58.527Z,92.21
2022-12-10T04:37:26.434Z,92.75
2022-12-10T04:39:54.048Z,92.11
2022-12-10T04:42:23.443Z,92.18
2022-12-10T04:44:50.775Z,91.51
2022-12-10T04:47:18.145Z,91.99
2022-12-10T04:49:45.320Z,92.46
2022-12-10T04:52:14.859Z,92.42
2022-12-10T04:54:43.474Z,93.12
2022-12-10T04:57:12.092Z,91.67
2022-12-10T04:59:40.867Z,91.95
2022-12-10T05:02:08.489Z,92.06
2022-12-10T05:04:35.956Z,92.26
2022-12-10T05:07:03.259Z,91.86
2022-12-10T05:09:31.596Z,92.49
2022-12-10T05:11:58.654Z,92.12
2022-12-10T05:14:26.153Z,92.49
2022-12-10T05:16:53.559Z,92.12
2022-12-10T05:19:22.812Z,91.80
2022-12-10T05:22:09.304Z,92.76
2022-12-10T05:24:36.883Z,91.95
2022-12-10T05:27:04.269Z,91.97
2022-12-10T05:29:31.350Z,92.49
2022-12-10T05:31:58.974Z,92.14
2022-12-10T05:34:26.023Z,92.38
2022-12-10T05:36:54.619Z,92.61
2022-12-10T05:39:21.855Z,92.53
2022-12-10T05:41:49.222Z,92.40
2022-12-10T05:44:17.493Z,92.30
2022-12-10T05:46:44.497Z,91.95
2022-12-10T05:49:11.617Z,91.88
2022-12-10T05:51:39.426Z,91.97
2022-12-10T05:54:08.005Z,91.60
2022-12-10T05:56:37.302Z,91.49
2022-12-10T05:59:06.496Z,91.63
2022-12-10T06:01:38.808Z,91.09
2022-12-10T06:04:07.143Z,91.09
2022-12-10T06:06:38.289Z,91.18
2022-12-10T06:09:08.218Z,91.22
2022-12-10T06:11:35.483Z,91.06
2022-12-10T06:14:03.419Z,90.51
2022-12-10T06:16:30.937Z,90.54
2022-12-10T06:18:58.468Z,91.77
2022-12-10T06:21:26.039Z,91.16
2022-12-10T06:23:54.301Z,91.43
2022-12-10T06:26:26.739Z,90.50
2022-12-10T06:28:55.189Z,90.60
2022-12-10T06:31:23.937Z,90.34
2022-12-10T06:33:53.023Z,90.36
2022-12-10T06:36:20.661Z,91.41
2022-12-10T06:38:48.526Z,90.98
2022-12-10T06:41:18.414Z,90.82
2022-12-10T06:43:45.514Z,91.27
2022-12-10T06:46:15.771Z,91.12
2022-12-10T06:48:43.798Z,90.55
2022-12-10T06:51:13.311Z,91.40
2022-12-10T06:53:41.562Z,90.93
2022-12-10T06:56:15.050Z,90.43
2022-12-10T06:58:43.274Z,90.92
2022-12-10T07:01:27.353Z,90.70
2022-12-10T07:03:57.395Z,90.02
2022-12-10T07:06:26.550Z,90.76
2022-12-10T07:08:53.721Z,90.08
2022-12-10T07:11:23.293Z,90.13
2022-12-10T07:13:52.814Z,89.91
2022-12-10T07:16:30.072Z,90.07
2022-12-10T07:19:00.203Z,89.81
2022-12-10T07:21:32.934Z,89.84
2022-12-10T07:24:07.364Z,90.31
2022-12-10T07:26:37.709Z,88.89
2022-12-10T07:29:08.841Z,90.26
2022-12-10T07:31:37.309Z,90.14
2022-12-10T07:34:04.663Z,90.06
2022-12-10T07:36:31.744Z,90.03
2022-12-10T07:38:58.883Z,90.42
2022-12-10T07:41:26.878Z,90.02
2022-12-10T07:43:54.542Z,90.89
2022-12-10T07:46:26.347Z,89.80
2022-12-10T07:48:54.145Z,89.96
2022-12-10T07:51:23.532Z,89.51
2022-12-10T07:53:54.560Z,90.32
2022-12-10T07:56:23.564Z,90.57
2022-12-10T07:58:53.696Z,90.81
2022-12-10T08:01:32.856Z,90.80
2022-12-10T08:04:00.115Z,90.74
2022-12-10T08:06:29.790Z,91.24
2022-12-10T08:09:00.242Z,90.76
2022-12-10T08:11:29.616Z,90.76
2022-12-10T08:13:57.926Z,90.86
2022-12-10T08:16:29.644Z,89.96
2022-12-10T08:19:00.173Z,90.87
2022-12-10T08:21:33.126Z,90.03
2022-12-10T08:24:01.225Z,90.70
2022-12-10T08:26:32.529Z,91.20
2022-12-10T08:29:00.725Z,90.78
2022-12-10T08:31:34.366Z,90.77
2022-12-10T08:34:06.040Z,90.41
2022-12-10T08:36:33.477Z,91.02
2022-12-10T08:39:01.036Z,90.28
2022-12-10T08:41:28.523Z,90.74
2022-12-10T08:43:56.317Z,91.06
2022-12-10T08:46:24.246Z,90.68
2022-12-10T08:48:51.440Z,90.52
2022-12-10T08:51:20.376Z,90.58
2022-12-10T08:53:47.926Z,90.47
2022-12-10T08:56:15.722Z,90.62
2022-12-10T08:58:43.796Z,90.07
2022-12-10T09:01:18.342Z,90.64
2022-12-10T09:03:46.307Z,90.13
2022-12-10T09:06:17.867Z,89.60
2022-12-10T09:08:45.080Z,89.39
2022-12-10T09:11:29.380Z,89.76
2022-12-10T09:13:56.894Z,89.10
2022-12-10T09:16:35.684Z,89.26
2022-12-10T09:19:05.525Z,89.57
2022-12-10T09:21:33.688Z,90.25
2022-12-10T09:24:00.990Z,89.80
2022-12-10T09:26:28.774Z,89.78
2022-12-10T09:28:56.548Z,89.73
2022-12-10T09:31:23.887Z,89.32
2022-12-10T09:33:53.620Z,89.23
2022-12-10T09:36:22.320Z,90.22
2022-12-10T09:38:50.832Z,89.43
2022-12-10T09:41:57.580Z,89.81
2022-12-10T09:44:56.787Z,89.90
2022-12-10T09:47:57.793Z,89.51
2022-12-10T09:50:37.921Z,89.55
2022-12-10T09:53:10.371Z,89.98
2022-12-10T09:55:44.108Z,90.75
2022-12-10T09:58:24.966Z,90.40
2022-12-10T10:01:07.351Z,89.92
2022-12-10T10:03:41.797Z,90.75
2022-12-10T10:06:14.720Z,89.85
2022-12-10T10:08:47.719Z,90.71
2022-12-10T10:11:31.023Z,90.17
2022-12-10T10:14:09.959Z,90.43
2022-12-10T10:16:46.533Z,91.06
2022-12-10T10:19:27.062Z,90.41
2022-12-10T10:21:57.380Z,89.67
2022-12-10T10:24:40.003Z,89.99
2022-12-10T10:27:29.889Z,90.20
2022-12-10T10:30:02.626Z,90.19
2022-12-10T10:32:50.242Z,89.60
2022-12-10T10:35:50.305Z,89.78
2022-12-10T10:38:21.917Z,90.07
2022-12-10T10:40:55.670Z,89.83
2022-12-10T10:43:32.957Z,90.77
2022-12-10T10:46:07.860Z,89.88
2022-12-10T10:48:34.937Z,90.03
2022-12-10T10:51:28.468Z,89.90
2022-12-10T10:53:57.342Z,89.72
2022-12-10T10:56:30.374Z,90.13
2022-12-10T10:59:08.061Z,89.58
2022-12-10T11:01:48.365Z,89.57
2022-12-10T11:04:18.198Z,89.47
2022-12-10T11:06:46.488Z,89.50
2022-12-10T11:09:26.263Z,89.21
2022-12-10T11:12:01.551Z,89.37
2022-12-10T11:14:38.324Z,88.64
2022-12-10T11:17:13.727Z,89.06
2022-12-10T11:19:59.961Z,90.18
2022-12-10T11:22:33.763Z,89.54
2022-12-10T11:25:01.999Z,90.03
2022-12-10T11:27:58.762Z,90.14
2022-12-10T11:30:27.849Z,89.26
2022-12-10T11:33:13.641Z,89.40
2022-12-10T11:36:08.487Z,89.68
2022-12-10T11:39:03.928Z,89.59
2022-12-10T11:42:09.885Z,89.77
2022-12-10T11:44:48.647Z,89.87
2022-12-10T11:47:24.355Z,89.44
2022-12-10T11:50:15.486Z,89.94
2022-12-10T11:53:23.019Z,89.50
2022-12-10T11:56:28.311Z,89.75
2022-12-10T11:59:04.004Z,89.38
2022-12-10T12:01:49.851Z,90.46
2022-12-10T12:05:03.034Z,90.09
2022-12-10T12:07:54.450Z,89.82
2022-12-10T12:10:25.820Z,90.58
2022-12-10T12:13:14.403Z,90.76
2022-12-10T12:16:21.749Z,90.22
2022-12-10T12:18:57.350Z,89.73
2022-12-10T12:21:24.825Z,90.50
2022-12-10T12:24:04.280Z,90.25
2022-12-10T12:26:43.338Z,90.11
2022-12-10T12:29:35.754Z,90.97
2022-12-10T12:32:19.235Z,89.81
2022-12-10T12:35:11.771Z,90.38
2022-12-10T12:37:59.515Z,90.13
2022-12-10T12:40:43.050Z,91.07
2022-12-10T12:43:17.706Z,90.21
2022-12-10T12:45:47.504Z,89.97
2022-12-10T12:48:30.353Z,90.11
2022-12-10T12:51:03.574Z,90.04
2022-12-10T12:53:35.226Z,89.28
2022-12-10T12:56:18.998Z,89.13
2022-12-10T12:58:50.163Z,90.01
2022-12-10T13:01:44.917Z,90.03
2022-12-10T13:04:12.586Z,89.91
2022-12-10T13:06:45.684Z,89.85
2022-12-10T13:09:12.647Z,90.44
2022-12-10T13:11:55.281Z,89.21
2022-12-10T13:14:35.106Z,90.13
2022-12-10T13:17:28.509Z,89.43
2022-12-10T13:20:28.106Z,90.56
2022-12-10T13:23:25.836Z,90.09
2022-12-10T13:25:58.713Z,90.49
2022-12-10T13:28:52.317Z,89.45
2022-12-10T13:31:57.093Z,90.07
2022-12-10T13:34:41.394Z,90.19
2022-12-10T13:37:14.558Z,90.05
2022-12-10T13:40:12.033Z,89.91
2022-12-10T13:43:03.839Z,90.34
2022-12-10T13:45:35.833Z,90.01
2022-12-10T13:48:32.247Z,89.80
2022-12-10T13:51:05.334Z,90.17
2022-12-10T13:54:20.171Z,90.73
2022-12-10T13:57:10.439Z,89.59
2022-12-10T14:00:08.014Z,89.32
2022-12-10T14:03:35.286Z,89.31
2022-12-10T14:06:19.108Z,89.42
2022-12-10T14:09:18.356Z,89.41
2022-12-10T14:12:32.615Z,90.34
2022-12-10T14:15:26.065Z,89.64
2022-12-10T14:18:15.222Z,89.39
2022-12-10T14:20:48.452Z,89.36
2022-12-10T14:23:46.303Z,89.24
2022-12-10T14:26:22.438Z,89.16
2022-12-10T14:28:56.757Z,89.92
2022-12-10T14:31:29.850Z,88.92
2022-12-10T14:34:05.730Z,89.97
2022-12-10T14:36:40.949Z,88.72
2022-12-10T14:39:21.567Z,89.46
2022-12-10T14:41:52.300Z,89.63
2022-12-10T14:44:20.438Z,89.43
2022-12-10T14:46:51.321Z,88.98
2022-12-10T14:49:24.612Z,89.48
2022-12-10T14:51:52.898Z,89.03
2022-12-10T14:54:32.565Z,89.56
2022-12-10T14:57:09.985Z,89.14
2022-12-10T14:59:45.934Z,89.63
2022-12-10T15:02:36.214Z,89.49
2022-12-10T15:05:06.540Z,88.93
2022-12-10T15:07:37.860Z,88.88
2022-12-10T15:10:20.377Z,89.00
2022-12-10T15:12:51.055Z,88.56
2022-12-10T15:15:25.880Z,88.50
2022-12-10T15:18:00.278Z,89.16
2022-12-10T15:20:50.843Z,88.82
2022-12-10T15:23:29.809Z,89.19
2022-12-10T15:26:29.699Z,88.74
2022-12-10T15:29:27.510Z,88.29
2022-12-10T15:32:21.623Z,89.47
2022-12-10T15:34:55.192Z,88.48
2022-12-10T15:37:40.139Z,88.58
2022-12-10T15:40:30.948Z,89.44
2022-12-10T15:43:13.939Z,88.86
2022-12-10T15:45:44.031Z,89.49
2022-12-10T15:48:14.167Z,89.47
2022-12-10T15:50:44.330Z,89.69
2022-12-10T15:53:14.470Z,89.69
2022-12-10T15:55:42.012Z,89.81
2022-12-10T15:58:14.778Z,88.94
2022-12-10T16:00:45.295Z,89.68
2022-12-10T16:03:16.477Z,89.12
2022-12-10T16:05:46.275Z,89.34
2022-12-10T16:08:22.538Z,89.75
2022-12-10T16:10:52.866Z,89.22
2022-12-10T16:13:24.513Z,89.67
2022-12-10T16:16:04.117Z,89.41
2022-12-10T16:18:34.587Z,89.89
2022-12-10T16:21:02.476Z,89.59
2022-12-10T16:23:29.812Z,89.57
2022-12-10T16:25:57.679Z,89.86
2022-12-10T16:28:26.399Z,89.41
2022-12-10T16:30:57.137Z,90.36
2022-12-10T16:33:26.781Z,89.81
2022-12-10T16:35:56.428Z,89.52
2022-12-10T16:38:25.338Z,89.85
2022-12-10T16:40:53.093Z,89.63
2022-12-10T16:43:26.279Z,90.01
2022-12-10T16:45:54.595Z,89.27
2022-12-10T16:48:23.236Z,89.80
2022-12-10T16:50:53.184Z,90.03
2022-12-10T16:53:26.719Z,89.93
2022-12-10T16:55:56.846Z,89.77
2022-12-10T16:58:25.702Z,88.98
2022-12-10T17:00:55.393Z,88.66
2022-12-10T17:03:26.807Z,88.78
2022-12-10T17:05:57.730Z,88.99
2022-12-10T17:08:27.254Z,89.51
2022-12-10T17:11:15.227Z,89.17
2022-12-10T17:13:45.059Z,88.90
2022-12-10T17:16:23.028Z,88.80
2022-12-10T17:18:51.188Z,88.73
2022-12-10T17:21:18.788Z,88.62
2022-12-10T17:23:46.016Z,89.62
2022-12-10T17:26:32.947Z,88.98
2022-12-10T17:29:23.497Z,88.56
2022-12-10T17:31:51.794Z,89.06
2022-12-10T17:34:24.575Z,88.80
2022-12-10T17:36:52.800Z,89.11
2022-12-10T17:39:23.236Z,89.57
2022-12-10T17:41:50.670Z,89.59
2022-12-10T17:44:18.747Z,89.28
2022-12-10T17:46:46.034Z,89.07
2022-12-10T17:49:15.212Z,89.57
2022-12-10T17:51:43.846Z,88.44
2022-12-10T17:54:10.889Z,88.81
2022-12-10T17:56:39.071Z,89.35
2022-12-10T17:59:07.421Z,89.69
2022-12-10T18:01:34.842Z,89.40
2022-12-10T18:04:01.977Z,89.35
2022-12-10T18:06:30.660Z,89.16
2022-12-10T18:09:01.709Z,88.97
2022-12-10T18:11:33.708Z,89.58
2022-12-10T18:14:01.632Z,89.35
2022-12-10T18:16:35.696Z,88.99
2022-12-10T18:19:07.472Z,89.43
2022-12-10T18:21:34.973Z,89.09
2022-12-10T18:24:02.366Z,89.58
2022-12-10T18:26:30.350Z,89.29
2022-12-10T18:29:00.191Z,89.25
2022-12-10T18:31:34.944Z,88.76
2022-12-10T18:34:08.511Z,89.81
2022-12-10T18:36:39.456Z,88.97
2022-12-10T18:39:26.505Z,89.74
2022-12-10T18:41:54.638Z,89.78
2022-12-10T18:44:25.510Z,89.42
2022-12-10T18:46:56.343Z,89.65
2022-12-10T18:49:24.859Z,88.96
2022-12-10T18:51:52.398Z,89.29
2022-12-10T18:54:20.136Z,89.50
2022-12-10T18:57:09.558Z,89.56
2022-12-10T18:59:34.897Z,89.31
2022-12-10T19:02:02.857Z,88.85
2022-12-10T19:04:29.944Z,89.08
2022-12-10T19:06:57.604Z,89.92
2022-12-10T19:09:29.303Z,89.71
2022-12-10T19:12:02.005Z,89.43
2022-12-10T19:14:29.166Z,89.28
2022-12-10T19:16:56.315Z,89.79
2022-12-10T19:19:23.360Z,89.37
2022-12-10T19:21:50.447Z,89.50
2022-12-10T19:24:17.550Z,90.34
2022-12-10T19:26:44.677Z,90.06
2022-12-10T19:29:18.099Z,89.82
2022-12-10T19:31:46.439Z,88.74
2022-12-10T19:34:16.329Z,89.27
2022-12-10T19:36:43.974Z,89.38
2022-12-10T19:39:25.299Z,90.02
2022-12-10T19:41:55.388Z,89.92
2022-12-10T19:44:23.011Z,89.38
2022-12-10T19:46:51.152Z,89.99
2022-12-10T19:49:20.151Z,90.21
2022-12-10T19:51:48.704Z,90.62
2022-12-10T19:54:16.728Z,90.39
2022-12-10T19:56:44.320Z,90.69
2022-12-10T19:59:20.804Z,89.38
2022-12-10T20:01:48.623Z,90.33
2022-12-10T20:04:17.114Z,90.06
2022-12-10T20:06:47.334Z,90.82
2022-12-10T20:09:24.132Z,90.70
2022-12-10T20:11:51.582Z,90.46
2022-12-10T20:14:20.270Z,91.63
2022-12-10T20:16:51.279Z,91.41
2022-12-10T20:19:24.067Z,91.46
2022-12-10T20:21:52.549Z,91.12
2022-12-10T20:24:20.248Z,91.24
2022-12-10T20:26:49.661Z,91.01
2022-12-10T20:29:23.801Z,90.99
2022-12-10T20:31:54.471Z,91.83
2022-12-10T20:34:22.860Z,91.23
2022-12-10T20:36:50.872Z,92.12
2022-12-10T20:39:22.327Z,92.38
2022-12-10T20:41:51.364Z,90.92
2022-12-10T20:44:19.451Z,91.09
2022-12-10T20:46:48.421Z,91.54
2022-12-10T20:49:18.688Z,92.40
2022-12-10T20:51:46.848Z,92.18
2022-12-10T20:54:14.293Z,91.60
2022-12-10T20:56:41.897Z,92.11
2022-12-10T20:59:13.420Z,92.48
2022-12-10T21:01:40.821Z,92.39
2022-12-10T21:04:08.002Z,92.28
2022-12-10T21:06:35.143Z,92.38
2022-12-10T21:09:02.490Z,91.79
2022-12-10T21:11:29.912Z,91.73
2022-12-10T21:13:57.050Z,91.93
2022-12-10T21:16:25.967Z,91.64
2022-12-10T21:18:54.292Z,91.21
2022-12-10T21:21:24.379Z,91.43
2022-12-10T21:23:51.605Z,92.14
2022-12-10T21:26:18.725Z,91.92
2022-12-10T21:28:46.206Z,91.86
2022-12-10T21:31:20.924Z,90.76
2022-12-10T21:33:48.951Z,91.08
2022-12-10T21:36:18.895Z,91.92
2022-12-10T21:38:46.003Z,91.93
2022-12-10T21:41:42.459Z,91.63
2022-12-10T21:44:11.029Z,92.42
2022-12-10T21:46:40.198Z,91.46
2022-12-10T21:49:08.551Z,91.44
2022-12-10T21:51:40.039Z,92.76
2022-12-10T21:54:08.780Z,91.83
2022-12-10T21:56:36.726Z,92.65
2022-12-10T21:59:04.344Z,91.20
2022-12-10T22:01:32.069Z,92.35
2022-12-10T22:03:59.245Z,92.07
2022-12-10T22:06:29.327Z,93.12
2022-12-10T22:08:57.368Z,92.28
2022-12-10T22:11:24.644Z,92.57
2022-12-10T22:13:55.859Z,92.66
2022-12-10T22:16:23.210Z,92.01
2022-12-10T22:18:50.656Z,92.82
2022-12-10T22:21:23.501Z,92.40
2022-12-10T22:23:54.940Z,91.62
2022-12-10T22:26:23.317Z,92.20
2022-12-10T22:28:51.275Z,92.72
2022-12-10T22:31:20.002Z,92.47
2022-12-10T22:33:47.589Z,92.64
2022-12-10T22:36:15.450Z,92.27
2022-12-10T22:38:42.614Z,92.87
2022-12-10T22:41:10.276Z,91.87
2022-12-10T22:43:53.481Z,93.74
2022-12-10T22:46:21.925Z,92.83
2022-12-10T22:48:49.144Z,92.86
2022-12-10T22:51:16.794Z,91.65
2022-12-10T22:53:43.998Z,92.80
2022-12-10T22:56:14.199Z,92.89
2022-12-10T22:58:41.984Z,92.27
2022-12-10T23:01:20.319Z,92.25
2022-12-10T23:03:50.540Z,91.72
2022-12-10T23:06:18.513Z,91.90
2022-12-10T23:08:45.789Z,92.67
2022-12-10T23:11:15.912Z,92.21
2022-12-10T23:13:43.980Z,91.64
2022-12-10T23:16:14.849Z,91.58
2022-12-10T23:18:43.376Z,91.26
2022-12-10T23:21:21.528Z,92.09
2022-12-10T23:23:49.279Z,91.94
2022-12-10T23:26:17.375Z,91.65
2022-12-10T23:28:45.618Z,91.13
2022-12-10T23:31:14.268Z,92.11
2022-12-10T23:33:41.481Z,91.71
2022-12-10T23:36:10.434Z,91.45
2022-12-10T23:38:38.995Z,91.12
2022-12-10T23:41:11.847Z,91.42
2022-12-10T23:43:39.581Z,90.75
2022-12-10T23:46:08.605Z,92.16
2022-12-10T23:48:35.931Z,90.99
2022-12-10T23:51:03.247Z,91.34
2022-12-10T23:53:30.981Z,91.34
2022-12-10T23:55:58.386Z,90.66
2022-12-10T23:58:25.945Z,91.03
